Time;durP1;ratioP1;P1;durP2;ratioP2;P2;SDS_P1;SDS_P2;PMS_P1;PMS_P2;Temp;Humidity;BMP_temperature;BMP_pressure;BME280_temperature;BME280_humidity;BME280_pressure;Samples;Min_cycle;Max_cycle;Signal;HPM_P1;HPM_P2
2023/11/03 00:00:37;;;;;;;13.90;10.40;;;;;;;7.17;73.35;98916.57;107255;1257;60420;-37
2023/11/03 00:03:06;;;;;;;14.00;9.70;;;;;;;7.14;73.37;98917.33;107127;1258;73869;-37
2023/11/03 00:05:38;;;;;;;15.50;9.40;;;;;;;7.17;73.30;98915.71;107119;1261;67911;-37
2023/11/03 00:08:06;;;;;;;15.70;10.20;;;;;;;7.21;73.26;98913.21;107109;1257;72648;-37
2023/11/03 00:10:34;;;;;;;15.10;9.30;;;;;;;7.20;73.28;98918.89;107113;1262;59822;-37
2023/11/03 00:13:03;;;;;;;17.60;10.30;;;;;;;7.18;73.57;98915.60;107194;1262;60294;-37
2023/11/03 00:15:32;;;;;;;12.90;9.30;;;;;;;7.17;73.58;98917.58;107129;1262;72619;-37
2023/11/03 00:18:00;;;;;;;15.90;10.60;;;;;;;7.15;73.64;98922.45;107136;1262;66584;-37
2023/11/03 00:20:28;;;;;;;16.00;10.30;;;;;;;7.12;73.68;98924.15;107076;1257;72698;-37
2023/11/03 00:22:56;;;;;;;11.80;9.10;;;;;;;7.14;73.64;98921.44;107186;1261;62216;-37
2023/11/03 00:25:23;;;;;;;13.30;9.30;;;;;;;7.19;73.56;98924.02;107219;1256;60288;-37
2023/11/03 00:27:52;;;;;;;15.20;9.90;;;;;;;7.19;73.68;98927.32;107212;1257;73907;-37
2023/11/03 00:30:20;;;;;;;12.30;9.40;;;;;;;7.16;73.82;98925.95;107090;1262;68120;-37
2023/11/03 00:32:47;;;;;;;14.10;9.80;;;;;;;7.14;73.83;98928.83;107107;1257;71469;-37
2023/11/03 00:35:16;;;;;;;13.00;10.30;;;;;;;7.13;73.96;98931.48;107231;1258;60141;-37
2023/11/03 00:37:44;;;;;;;14.10;9.10;;;;;;;7.12;73.94;98931.29;107206;1258;60509;-37
2023/11/03 00:40:13;;;;;;;12.30;9.30;;;;;;;7.15;73.75;98932.55;107187;1257;72592;-37
2023/11/03 00:42:42;;;;;;;12.60;8.80;;;;;;;7.21;73.74;98933.53;107225;1262;67645;-37
2023/11/03 00:45:10;;;;;;;14.80;9.20;;;;;;;7.20;73.70;98932.04;107232;1257;72675;-36
2023/11/03 00:47:38;;;;;;;13.60;9.70;;;;;;;7.17;73.73;98925.27;107227;1260;60523;-36
2023/11/03 00:50:09;;;;;;;17.00;10.00;;;;;;;7.14;73.80;98926.97;107154;1262;60481;-36
2023/11/03 00:52:37;;;;;;;14.30;10.20;;;;;;;7.10;73.76;98930.88;107120;1257;73900;-36
2023/11/03 00:55:06;;;;;;;13.50;10.00;;;;;;;7.04;73.84;98928.17;107065;1257;67726;-36
2023/11/03 00:57:36;;;;;;;15.10;9.50;;;;;;;7.06;73.70;98925.15;107098;1256;72682;-36
2023/11/03 01:00:05;;;;;;;12.90;9.40;;;;;;;7.10;73.69;98923.41;107100;1257;60400;-36
2023/11/03 01:02:32;;;;;;;16.40;10.00;;;;;;;7.07;73.87;98926.72;107163;1260;59271;-36
2023/11/03 01:05:00;;;;;;;12.40;9.70;;;;;;;7.04;74.07;98921.55;107097;1262;73846;-37
2023/11/03 01:07:29;;;;;;;13.70;9.60;;;;;;;7.00;74.17;98918.97;107136;1262;67604;-36
2023/11/03 01:09:56;;;;;;;16.90;10.70;;;;;;;6.96;74.27;98923.89;107091;1263;72724;-36
2023/11/03 01:12:25;;;;;;;14.50;10.00;;;;;;;6.93;74.54;98918.72;107205;1263;61691;-37
2023/11/03 01:14:55;;;;;;;12.30;9.80;;;;;;;6.97;74.34;98914.59;107042;1257;60673;-36
2023/11/03 01:17:25;;;;;;;15.10;10.20;;;;;;;7.00;74.42;98915.13;107241;1257;73847;-36
2023/11/03 01:19:52;;;;;;;;;;;;;;;6.98;74.59;98911.86;107103;1257;68747;-36
2023/11/03 01:22:22;;;;;;;14.80;10.90;;;;;;;6.95;74.80;98911.09;107199;1257;72678;-35
2023/11/03 01:24:52;;;;;;;14.60;10.70;;;;;;;6.93;75.04;98916.56;107239;1260;60386;-37
2023/11/03 01:27:20;;;;;;;14.80;10.50;;;;;;;6.92;75.18;98912.85;107202;1257;60431;-36
2023/11/03 01:29:51;;;;;;;13.90;10.30;;;;;;;6.91;75.28;98910.45;107227;1257;73961;-36
2023/11/03 01:32:19;;;;;;;15.70;10.10;;;;;;;6.96;75.19;98909.65;107283;1261;67970;-37
2023/11/03 01:34:47;;;;;;;14.50;10.30;;;;;;;7.01;75.12;98908.86;107061;1263;73128;-37
2023/11/03 01:37:15;;;;;;;16.80;10.80;;;;;;;7.01;75.13;98912.33;107060;1260;60434;-37
2023/11/03 01:39:43;;;;;;;16.10;11.10;;;;;;;6.98;75.29;98915.02;107275;1262;60308;-37
2023/11/03 01:42:10;;;;;;;15.10;11.20;;;;;;;6.97;75.42;98918.07;107200;1262;73836;-37
2023/11/03 01:44:38;;;;;;;14.40;11.10;;;;;;;6.95;75.52;98915.32;107234;1263;66889;-37
2023/11/03 01:47:06;;;;;;;14.40;10.40;;;;;;;6.92;75.52;98918.33;106941;1263;71425;-37
2023/11/03 01:49:33;;;;;;;15.20;10.10;;;;;;;6.95;75.44;98920.73;107174;1257;62066;-37
2023/11/03 01:52:01;;;;;;;14.50;10.00;;;;;;;7.00;75.33;98923.46;107152;1257;60053;-37
2023/11/03 01:54:29;;;;;;;12.90;10.00;;;;;;;7.00;75.63;98924.55;107197;1257;74107;-37
2023/11/03 01:56:57;;;;;;;13.90;11.10;;;;;;;7.00;75.77;98928.47;107241;1259;67957;-37
2023/11/03 01:59:25;;;;;;;14.30;11.10;;;;;;;6.99;75.73;98927.58;107268;1262;71383;-37
2023/11/03 02:01:53;;;;;;;14.90;11.40;;;;;;;6.96;75.80;98929.13;107094;1260;60373;-37
2023/11/03 02:04:21;;;;;;;14.70;10.40;;;;;;;6.93;75.84;98925.73;107136;1257;60430;-37
2023/11/03 02:06:48;;;;;;;15.50;10.80;;;;;;;6.96;75.68;98929.21;107238;1257;73945;-37
2023/11/03 02:09:16;;;;;;;15.90;11.00;;;;;;;7.00;75.62;98930.55;107227;1257;66309;-37
2023/11/03 02:11:45;;;;;;;12.80;10.50;;;;;;;6.99;75.78;98931.98;107236;1258;72699;-37
2023/11/03 02:14:12;;;;;;;15.40;11.20;;;;;;;6.97;75.78;98939.85;107217;1263;60285;-37
2023/11/03 02:16:40;;;;;;;15.50;11.70;;;;;;;6.94;75.98;98939.08;107269;1262;60332;-37
2023/11/03 02:19:10;;;;;;;15.20;12.00;;;;;;;6.92;76.00;98934.96;107262;1262;72602;-37
2023/11/03 02:21:43;;;;;;;17.20;11.80;;;;;;;6.89;75.96;98929.78;107151;1262;67915;-37
2023/11/03 02:24:10;;;;;;;18.10;11.60;;;;;;;6.93;75.83;98927.66;107269;1257;72495;-36
2023/11/03 02:26:39;;;;;;;15.90;11.60;;;;;;;6.96;75.83;98926.21;107195;1258;60421;-36
2023/11/03 02:29:06;;;;;;;19.20;11.90;;;;;;;6.94;75.99;98927.44;107216;1260;60194;-36
2023/11/03 02:31:34;;;;;;;16.80;12.50;;;;;;;6.91;75.96;98928.14;107193;1257;73896;-36
2023/11/03 02:34:03;;;;;;;20.60;12.20;;;;;;;6.89;76.19;98932.32;107051;1263;66387;-36
2023/11/03 02:36:31;;;;;;;14.90;11.40;;;;;;;6.85;76.08;98934.68;107269;1261;72671;-36
2023/11/03 02:38:58;;;;;;;18.70;11.60;;;;;;;6.82;76.25;98939.05;106922;1263;61639;-36
2023/11/03 02:41:26;;;;;;;16.00;11.60;;;;;;;6.86;76.18;98946.17;107137;1260;60310;-36
2023/11/03 02:43:53;;;;;;;18.90;12.50;;;;;;;6.91;76.05;98945.71;107243;1261;73440;-36
2023/11/03 02:46:23;;;;;;;16.40;11.40;;;;;;;6.91;76.09;98945.02;107161;1262;66999;-36
2023/11/03 02:48:51;;;;;;;15.80;12.20;;;;;;;6.91;76.27;98944.00;107288;1263;71938;-36
2023/11/03 02:51:19;;;;;;;18.00;12.70;;;;;;;6.90;76.29;98941.81;107215;1260;60279;-36
2023/11/03 02:53:47;;;;;;;18.50;12.30;;;;;;;6.88;76.36;98937.08;107135;1257;60309;-36
2023/11/03 02:56:25;;;;;;;16.30;11.30;;;;;;;6.88;76.33;98937.83;107079;1257;72691;-36
2023/11/03 02:58:52;;;;;;;17.10;12.00;;;;;;;6.92;76.17;98934.55;107166;1257;67605;-36
2023/11/03 03:01:27;;;;;;;16.50;12.30;;;;;;;6.96;76.28;98933.84;107191;1257;72667;-36
2023/11/03 03:03:54;;;;;;;16.10;11.70;;;;;;;6.97;76.36;98933.54;107036;1257;60611;-37
2023/11/03 03:06:22;;;;;;;16.20;11.80;;;;;;;6.94;76.47;98926.39;107273;1257;60556;-36
2023/11/03 03:08:50;;;;;;;15.20;11.50;;;;;;;6.93;76.47;98926.42;107265;1260;73866;-36
2023/11/03 03:11:18;;;;;;;19.10;13.00;;;;;;;6.88;76.55;98927.07;107191;1257;66743;-36
2023/11/03 03:13:45;;;;;;;15.70;11.60;;;;;;;6.83;76.59;98922.39;107223;1260;72715;-36
2023/11/03 03:16:16;;;;;;;14.60;11.70;;;;;;;6.88;76.45;98932.08;107207;1258;61690;-36
2023/11/03 03:18:46;;;;;;;16.60;12.50;;;;;;;6.92;76.49;98930.55;107282;1258;60268;-36
2023/11/03 03:21:17;;;;;;;14.50;11.60;;;;;;;6.90;76.63;98932.59;107311;1257;73838;-37
2023/11/03 03:23:46;;;;;;;17.80;12.60;;;;;;;6.87;76.89;98926.89;107193;1257;66466;-36
2023/11/03 03:26:14;;;;;;;17.40;13.00;;;;;;;6.86;76.87;98927.33;107292;1260;72824;-35
2023/11/03 03:28:41;;;;;;;19.30;13.20;;;;;;;6.83;76.90;98922.79;107027;1262;231146;-37
2023/11/03 03:33:40;;;;;;;15.30;11.90;;;;;;;6.87;76.55;98917.05;104230;1291;600667;-37
2023/11/03 03:36:09;;;;;;;17.50;13.20;;;;;;;6.85;76.69;98910.80;106608;1269;60105;-37
2023/11/03 03:38:37;;;;;;;15.90;12.40;;;;;;;6.81;76.79;98911.95;106694;1266;59300;-37
2023/11/03 03:41:10;;;;;;;16.20;13.40;;;;;;;6.78;76.85;98920.32;106650;1271;71977;-37
2023/11/03 03:43:37;;;;;;;19.40;13.50;;;;;;;6.72;77.03;98918.11;106708;1266;66323;-37
2023/11/03 03:46:05;;;;;;;15.00;12.30;;;;;;;6.68;77.16;98919.60;106582;1268;296747;-37
2023/11/03 03:48:33;;;;;;;17.50;12.90;;;;;;;6.71;77.17;98919.85;107003;1260;61752;-37
2023/11/03 03:51:00;;;;;;;16.80;12.40;;;;;;;6.73;77.18;98914.20;106886;1259;59291;-37
2023/11/03 03:53:29;;;;;;;17.60;12.90;;;;;;;6.71;77.44;98917.30;106929;1259;71073;-37
2023/11/03 03:55:57;;;;;;;17.90;13.40;;;;;;;6.67;77.81;98916.50;106908;1259;68103;-37
2023/11/03 03:58:24;;;;;;;19.20;13.70;;;;;;;6.64;77.99;98915.88;106899;1259;71707;-36
2023/11/03 04:00:52;;;;;;;17.90;12.90;;;;;;;6.61;78.16;98923.16;106803;1259;61659;-37
2023/11/03 04:03:20;;;;;;;14.70;11.90;;;;;;;6.65;78.05;98915.74;107004;1259;59567;-36
2023/11/03 04:05:48;;;;;;;16.30;12.10;;;;;;;6.68;78.11;98906.30;106959;1259;73255;-37
2023/11/03 04:08:15;;;;;;;15.60;12.00;;;;;;;6.72;78.27;98913.40;106977;1260;68211;-37
2023/11/03 04:10:43;;;;;;;17.50;13.10;;;;;;;6.71;78.45;98907.75;106943;1265;72707;-37
2023/11/03 04:13:10;;;;;;;21.30;14.20;;;;;;;6.69;78.43;98907.23;106971;1259;60293;-37
2023/11/03 04:15:38;;;;;;;18.10;13.00;;;;;;;6.68;78.43;98906.28;106934;1259;60087;-37
2023/11/03 04:18:06;;;;;;;18.80;12.60;;;;;;;6.71;78.15;98906.84;106913;1262;73105;-37
2023/11/03 04:20:33;;;;;;;18.40;12.10;;;;;;;6.73;77.81;98903.52;106997;1259;67893;-37
2023/11/03 04:23:01;;;;;;;14.50;12.90;;;;;;;6.72;77.83;98904.11;106922;1261;72764;-37
2023/11/03 04:25:28;;;;;;;19.00;13.20;;;;;;;6.69;77.90;98903.00;106926;1259;59708;-37
2023/11/03 04:27:56;;;;;;;19.80;13.20;;;;;;;6.65;78.04;98899.83;106982;1259;60062;-37
2023/11/03 04:30:24;;;;;;;21.10;14.60;;;;;;;6.62;78.07;98896.37;106884;1259;73032;-37
2023/11/03 04:32:51;;;;;;;19.60;13.30;;;;;;;6.59;77.93;98895.56;106892;1261;67606;-36
2023/11/03 04:35:19;;;;;;;14.40;11.80;;;;;;;6.61;77.75;98893.02;106964;1261;72727;-37
2023/11/03 04:37:49;;;;;;;16.50;12.30;;;;;;;6.66;77.64;98894.91;106938;1262;60137;-36
2023/11/03 04:40:21;;;;;;;15.80;12.70;;;;;;;6.63;77.78;98894.69;106997;1260;59531;-37
2023/11/03 04:42:48;;;;;;;17.80;13.70;;;;;;;6.59;77.93;98888.95;106896;1261;73626;-37
2023/11/03 04:45:16;;;;;;;19.70;13.20;;;;;;;6.53;77.83;98892.51;106980;1260;67571;-36
2023/11/03 04:47:43;;;;;;;18.00;13.60;;;;;;;6.48;77.97;98891.28;106847;1262;71936;-37
2023/11/03 04:50:11;;;;;;;19.80;13.10;;;;;;;6.44;78.01;98890.94;106891;1263;61722;-36
2023/11/03 04:52:39;;;;;;;16.90;11.90;;;;;;;6.48;77.87;98895.43;106892;1262;58740;-36
2023/11/03 04:55:08;;;;;;;16.70;12.70;;;;;;;6.54;77.74;98896.98;106885;1262;71840;-36
2023/11/03 04:57:36;;;;;;;18.20;13.30;;;;;;;6.53;77.89;98899.80;106861;1262;68080;-36
2023/11/03 05:00:12;;;;;;;17.60;12.80;;;;;;;6.50;77.98;98901.98;106883;1262;71525;-37
2023/11/03 05:02:40;;;;;;;18.40;13.80;;;;;;;6.48;78.05;98903.23;106871;1262;60105;-36
2023/11/03 05:05:09;;;;;;;18.00;11.70;;;;;;;6.46;78.04;98898.79;106859;1263;59609;-36
2023/11/03 05:07:40;;;;;;;16.30;12.10;;;;;;;6.51;77.99;98903.29;106900;1262;72183;-36
2023/11/03 05:10:08;;;;;;;15.90;12.50;;;;;;;6.58;77.87;98902.86;106865;1266;68064;-37
2023/11/03 05:12:36;;;;;;;16.30;12.40;;;;;;;6.60;77.93;98903.59;106851;1262;71067;-36
2023/11/03 05:15:07;;;;;;;15.50;12.90;;;;;;;6.59;77.98;98909.27;106851;1262;61181;-37
2023/11/03 05:17:35;;;;;;;17.20;13.10;;;;;;;6.58;78.06;98912.79;106135;1263;1003725;-37
2023/11/03 05:20:07;;;;;;;19.10;12.50;;;;;;;6.58;78.10;98913.24;106866;1262;73068;-37
2023/11/03 05:22:35;;;;;;;16.40;11.80;;;;;;;6.62;78.01;98914.80;106854;1262;66795;-37
2023/11/03 05:25:05;;;;;;;16.00;12.40;;;;;;;6.67;77.80;98914.29;106858;1262;71116;-37
2023/11/03 05:27:33;;;;;;;;;;;;;;;6.67;77.86;98911.58;106751;1262;60206;-37
2023/11/03 05:30:00;;;;;;;16.50;12.70;;;;;;;6.65;78.00;98909.98;106744;1263;59811;-38
2023/11/03 05:32:28;;;;;;;15.40;12.60;;;;;;;6.63;78.17;98910.86;106734;1262;73067;-37
2023/11/03 05:34:55;;;;;;;17.20;12.40;;;;;;;6.63;78.24;98909.08;106823;1262;68425;-37
2023/11/03 05:37:23;;;;;;;16.60;10.50;;;;;;;6.68;78.03;98905.61;106775;1262;72735;-37
2023/11/03 05:39:50;;;;;;;15.90;11.70;;;;;;;6.76;77.99;98907.19;106773;1262;59778;-37
2023/11/03 05:42:18;;;;;;;12.90;11.00;;;;;;;6.78;78.20;98898.46;106860;1262;60056;-37
2023/11/03 05:44:46;;;;;;;15.60;11.20;;;;;;;6.78;78.23;98897.61;106852;1262;71719;-37
2023/11/03 05:47:13;;;;;;;15.00;11.60;;;;;;;6.78;78.38;98893.45;106855;1261;67607;-37
2023/11/03 05:49:41;;;;;;;16.60;11.40;;;;;;;6.78;78.50;98897.94;106864;1262;72723;-37
2023/11/03 05:52:09;;;;;;;13.50;10.00;;;;;;;6.84;78.49;98895.77;106851;1262;62136;-37
2023/11/03 05:54:36;;;;;;;13.30;10.70;;;;;;;6.91;78.47;98896.90;106869;1263;60027;-37
2023/11/03 05:57:04;;;;;;;14.20;10.40;;;;;;;6.93;78.70;98896.56;106862;1262;73088;-37
2023/11/03 05:59:32;;;;;;;13.60;10.50;;;;;;;6.95;78.88;98895.00;106866;1263;67944;-37
2023/11/03 06:01:59;;;;;;;13.50;10.60;;;;;;;6.97;78.91;98892.81;106867;1262;71916;-37
2023/11/03 06:04:27;;;;;;;15.00;10.10;;;;;;;7.01;78.95;98892.83;106878;1262;61725;-37
2023/11/03 06:06:55;;;;;;;12.90;9.60;;;;;;;7.11;78.85;98897.92;106843;1263;59469;-37
2023/11/03 06:09:26;;;;;;;14.90;9.70;;;;;;;7.22;78.66;98895.35;106880;1262;73091;-37
2023/11/03 06:11:54;;;;;;;15.30;10.90;;;;;;;7.28;78.69;98899.27;106870;1262;67963;-37
2023/11/03 06:14:21;;;;;;;13.90;10.00;;;;;;;7.32;78.62;98897.54;106881;1262;73059;-38
2023/11/03 06:16:49;;;;;;;12.90;10.10;;;;;;;7.35;78.39;98888.90;106858;1261;59561;-37
2023/11/03 06:19:16;;;;;;;16.10;10.40;;;;;;;7.34;78.39;98880.95;106888;1261;59716;-37
2023/11/03 06:21:44;;;;;;;11.80;9.60;;;;;;;7.36;78.48;98878.99;106870;1262;73027;-37
2023/11/03 06:24:12;;;;;;;11.10;8.50;;;;;;;7.45;78.38;98880.03;106880;1263;67758;-37
2023/11/03 06:26:39;;;;;;;13.30;8.60;;;;;;;7.54;78.16;98886.55;106854;1262;72698;-38
2023/11/03 06:29:07;;;;;;;10.80;9.20;;;;;;;7.58;78.33;98884.27;106872;1262;59290;-37
2023/11/03 06:31:34;;;;;;;11.10;9.60;;;;;;;7.62;78.39;98883.50;106938;1265;59228;-38
2023/11/03 06:34:03;;;;;;;11.80;9.50;;;;;;;7.65;78.38;98880.80;106864;1266;73098;-37
2023/11/03 06:36:31;;;;;;;10.70;8.50;;;;;;;7.68;78.26;98879.17;106892;1260;67641;-37
2023/11/03 06:39:18;;;;;;;12.00;8.90;;;;;;;7.78;78.09;98876.54;106902;1260;72697;-38
2023/11/03 06:41:46;;;;;;;12.80;9.00;;;;;;;7.88;77.91;98875.99;106895;1262;60100;-37
2023/11/03 06:44:14;;;;;;;11.90;9.00;;;;;;;7.94;77.89;98869.80;106880;1260;60015;-37
2023/11/03 06:46:42;;;;;;;12.80;8.80;;;;;;;7.99;77.78;98865.66;106885;1260;72895;-37
2023/11/03 06:49:09;;;;;;;12.90;8.90;;;;;;;8.02;77.71;98861.73;106872;1262;67602;-37
2023/11/03 06:51:37;;;;;;;13.30;8.40;;;;;;;8.05;77.44;98863.86;106868;1261;72736;-37
2023/11/03 06:54:05;;;;;;;10.00;7.70;;;;;;;8.13;77.27;98860.02;106870;1260;61670;-38
2023/11/03 06:56:32;;;;;;;11.00;8.60;;;;;;;8.22;76.93;98861.75;106865;1260;59722;-37
2023/11/03 06:59:00;;;;;;;12.00;8.10;;;;;;;8.27;76.86;98855.98;106894;1260;73232;-38
2023/11/03 07:01:28;;;;;;;10.00;7.90;;;;;;;8.30;76.91;98855.73;106840;1260;67570;-38
2023/11/03 07:03:55;;;;;;;11.60;8.50;;;;;;;8.34;76.53;98858.39;106849;1260;73236;-38
2023/11/03 07:06:24;;;;;;;11.50;8.10;;;;;;;8.38;76.37;98859.21;106872;1262;60136;-38
2023/11/03 07:08:52;;;;;;;10.30;7.50;;;;;;;8.43;76.31;98868.42;106864;1261;59290;-37
2023/11/03 07:11:19;;;;;;;8.80;6.90;;;;;;;8.54;76.06;98868.48;106865;1266;73200;-38
2023/11/03 07:13:47;;;;;;;9.20;7.10;;;;;;;8.64;75.86;98864.90;106891;1261;66274;-38
2023/11/03 07:16:16;;;;;;;9.80;7.60;;;;;;;8.69;75.11;98865.98;106877;1260;71109;-37
2023/11/03 07:18:44;;;;;;;11.20;7.50;;;;;;;8.74;75.04;98866.08;106879;1262;60069;-37
2023/11/03 07:21:15;;;;;;;9.10;7.00;;;;;;;8.80;74.99;98871.67;106914;1262;59133;-37
2023/11/03 07:23:44;;;;;;;7.60;6.60;;;;;;;8.86;74.74;98876.02;106843;1266;72375;-37
2023/11/03 07:26:13;;;;;;;8.00;6.30;;;;;;;8.97;74.22;98878.46;106868;1267;67619;-37
2023/11/03 07:28:45;;;;;;;8.30;6.70;;;;;;;9.10;74.04;98881.94;106865;1262;72715;-37
2023/11/03 07:31:13;;;;;;;7.20;6.10;;;;;;;9.19;73.95;98883.92;106748;1260;60079;-37
2023/11/03 07:33:41;;;;;;;7.60;6.30;;;;;;;9.24;73.20;98882.85;106862;1261;60109;-36
2023/11/03 07:36:10;;;;;;;8.00;6.10;;;;;;;9.27;72.74;98875.80;106790;1263;73065;-37
2023/11/03 07:38:39;;;;;;;7.20;5.80;;;;;;;9.35;72.03;98878.40;106889;1260;66810;-37
2023/11/03 07:41:10;;;;;;;6.80;5.30;;;;;;;9.42;72.08;98882.06;106877;1260;72824;-37
2023/11/03 07:43:38;;;;;;;6.70;5.30;;;;;;;9.54;71.54;98876.52;106839;1260;60464;-36
2023/11/03 07:46:06;;;;;;;6.10;4.90;;;;;;;9.66;70.97;98874.77;106849;1261;60319;-37
2023/11/03 07:48:34;;;;;;;5.90;5.00;;;;;;;9.74;70.52;98878.75;106855;1262;73919;-37
2023/11/03 07:51:02;;;;;;;6.10;4.90;;;;;;;9.79;70.24;98879.30;106869;1261;67653;-37
2023/11/03 07:53:30;;;;;;;5.20;4.70;;;;;;;9.86;69.69;98875.29;106901;1260;72805;-37
2023/11/03 07:56:00;;;;;;;6.60;4.90;;;;;;;9.93;69.51;98877.31;106882;1260;61011;-37
2023/11/03 07:58:29;;;;;;;5.90;4.70;;;;;;;10.00;68.76;98879.19;106885;1261;60483;-37
2023/11/03 08:00:57;;;;;;;7.10;4.80;;;;;;;10.07;68.06;98875.64;106861;1266;73899;-37
2023/11/03 08:03:28;;;;;;;5.30;4.30;;;;;;;10.12;67.93;98878.89;106874;1260;67964;-37
2023/11/03 08:05:58;;;;;;;5.00;4.00;;;;;;;10.24;67.13;98881.69;107083;1259;72693;-37
2023/11/03 08:08:26;;;;;;;5.00;4.20;;;;;;;10.36;66.39;98884.31;107215;1256;60393;-37
2023/11/03 08:10:54;;;;;;;4.80;3.80;;;;;;;10.41;65.57;98880.04;107210;1256;60420;-37
2023/11/03 08:13:23;;;;;;;6.50;4.00;;;;;;;10.48;65.64;98884.62;107115;1256;73920;-36
2023/11/03 08:15:51;;;;;;;4.90;4.00;;;;;;;10.55;65.45;98876.17;107067;1256;66865;-36
2023/11/03 08:18:19;;;;;;;5.20;4.60;;;;;;;10.62;64.60;98870.13;106919;1257;72081;-36
2023/11/03 08:20:49;;;;;;;7.80;4.00;;;;;;;10.69;64.24;98866.26;106994;1256;60323;-36
2023/11/03 08:23:16;;;;;;;5.10;4.10;;;;;;;10.74;63.29;98863.91;107027;1256;60271;-36
2023/11/03 08:25:48;;;;;;;6.80;3.80;;;;;;;10.78;63.18;98863.80;107037;1256;74347;-37
2023/11/03 08:28:16;;;;;;;8.40;4.30;;;;;;;10.82;62.68;98864.14;107052;1256;66635;-36
2023/11/03 08:30:47;;;;;;;7.40;4.80;;;;;;;10.85;62.04;98862.55;107088;1259;72932;-36
2023/11/03 08:33:15;;;;;;;5.40;4.10;;;;;;;10.89;62.01;98861.04;107059;1256;60320;-37
2023/11/03 08:35:43;;;;;;;6.70;5.10;;;;;;;10.94;61.68;98855.42;107032;1256;60317;-36
2023/11/03 08:38:12;;;;;;;5.80;4.50;;;;;;;10.97;61.08;98856.54;107066;1256;73135;-37
2023/11/03 08:40:40;;;;;;;7.60;4.80;;;;;;;10.99;60.97;98859.11;107045;1262;66640;-37
2023/11/03 08:43:07;;;;;;;7.80;4.40;;;;;;;11.03;60.66;98853.72;107076;1256;75060;-35
2023/11/03 08:45:35;;;;;;;6.30;5.00;;;;;;;11.06;60.78;98855.13;107046;1256;60519;-35
2023/11/03 08:48:04;;;;;;;6.00;4.60;;;;;;;11.10;60.67;98854.32;107072;1256;60250;-35
2023/11/03 08:50:32;;;;;;;4.70;3.90;;;;;;;11.15;60.97;98848.01;107106;1257;73835;-35
2023/11/03 08:53:03;;;;;;;8.60;4.30;;;;;;;11.22;60.79;98848.53;107094;1256;67957;-36
2023/11/03 08:55:30;;;;;;;5.30;4.40;;;;;;;11.30;60.23;98838.27;107030;1259;71451;-36
2023/11/03 08:57:58;;;;;;;6.10;4.60;;;;;;;11.37;59.94;98844.30;107049;1262;60868;-36
2023/11/03 09:00:26;;;;;;;6.40;4.70;;;;;;;11.43;59.87;98839.23;107118;1256;60583;-36
2023/11/03 09:02:55;;;;;;;6.90;4.40;;;;;;;11.49;59.61;98836.33;107102;1256;74026;-36
2023/11/03 09:05:23;;;;;;;5.60;4.30;;;;;;;11.55;60.08;98831.23;107117;1256;67742;-36
2023/11/03 09:07:51;;;;;;;6.30;4.70;;;;;;;11.63;59.28;98839.44;107023;1256;72703;-36
2023/11/03 09:10:19;;;;;;;6.50;4.10;;;;;;;11.68;59.45;98834.04;107068;1256;60345;-36
2023/11/03 09:12:48;;;;;;;6.00;4.30;;;;;;;11.74;59.78;98836.42;107129;1256;61523;-36
2023/11/03 09:15:17;;;;;;;6.40;4.80;;;;;;;11.83;59.68;98835.70;107030;1256;72720;-36
2023/11/03 09:17:45;;;;;;;5.00;4.30;;;;;;;11.90;59.47;98831.55;107071;1256;68042;-36
2023/11/03 09:20:17;;;;;;;7.00;4.60;;;;;;;11.98;58.82;98817.16;107041;1256;71332;-36
2023/11/03 09:22:47;;;;;;;4.60;4.00;;;;;;;12.05;59.16;98811.66;107070;1262;60300;-36
2023/11/03 09:25:16;;;;;;;5.50;4.70;;;;;;;12.12;58.68;98810.46;107121;1256;60416;-37
2023/11/03 09:27:44;;;;;;;6.50;4.50;;;;;;;12.18;57.95;98800.46;107168;1256;73344;-36
2023/11/03 09:30:12;;;;;;;6.10;4.80;;;;;;;12.25;57.74;98799.63;107109;1256;66508;-37
2023/11/03 09:32:43;;;;;;;6.50;4.70;;;;;;;12.32;58.14;98798.48;107095;1258;72686;-36
2023/11/03 09:35:11;;;;;;;6.20;4.10;;;;;;;12.40;57.99;98790.04;107103;1258;62237;-36
2023/11/03 09:37:38;;;;;;;7.40;4.60;;;;;;;12.51;57.88;98784.16;107098;1256;60512;-36
2023/11/03 09:40:07;;;;;;;6.70;4.60;;;;;;;12.61;57.25;98779.59;107069;1256;74230;-36
2023/11/03 09:42:35;;;;;;;7.60;5.20;;;;;;;12.70;56.77;98777.42;107202;1256;70081;-36
2023/11/03 09:45:09;;;;;;;5.90;4.60;;;;;;;12.76;56.47;98780.00;107100;1256;71901;-36
2023/11/03 09:47:37;;;;;;;7.50;4.50;;;;;;;12.81;56.30;98783.96;107067;1256;60317;-37
2023/11/03 09:50:10;;;;;;;6.40;4.60;;;;;;;12.87;56.21;98789.56;107116;1256;62262;-36
2023/11/03 09:52:38;;;;;;;7.80;4.80;;;;;;;12.95;55.95;98792.27;106987;1256;73947;-36
2023/11/03 09:55:07;;;;;;;6.80;5.10;;;;;;;13.04;55.52;98791.89;107059;1256;69957;-37
2023/11/03 09:57:34;;;;;;;6.40;4.50;;;;;;;13.13;55.13;98783.21;107074;1259;73655;-36
2023/11/03 10:00:06;;;;;;;6.10;4.20;;;;;;;13.20;55.00;98768.43;107049;1259;60538;-36
2023/11/03 10:02:39;;;;;;;6.60;5.00;;;;;;;13.28;54.07;98774.95;107021;1256;61179;-36
2023/11/03 10:05:13;;;;;;;5.80;5.20;;;;;;;13.32;54.34;98764.98;107031;1257;75999;-36
2023/11/03 10:08:00;;;;;;;6.20;5.10;;;;;;;13.39;54.76;98757.98;107110;1256;69351;-36
2023/11/03 10:10:35;;;;;;;5.70;4.60;;;;;;;13.52;53.73;98748.84;107036;1256;71468;-36
2023/11/03 10:13:10;;;;;;;7.10;5.00;;;;;;;13.60;53.27;98745.24;107056;1256;60962;-36
2023/11/03 10:15:39;;;;;;;6.70;4.80;;;;;;;13.67;52.74;98754.71;107213;1256;60411;-36
2023/11/03 10:18:08;;;;;;;6.10;4.90;;;;;;;13.72;52.48;98763.34;107286;1256;72748;-37
2023/11/03 10:20:38;;;;;;;7.80;5.20;;;;;;;13.79;52.56;98761.84;107041;1259;68449;-37
2023/11/03 10:23:05;;;;;;;6.40;4.20;;;;;;;13.86;53.12;98757.21;107064;1257;73853;-37
2023/11/03 10:25:36;;;;;;;9.40;5.20;;;;;;;13.98;52.94;98751.47;107210;1257;60512;-37
2023/11/03 10:28:04;;;;;;;7.60;4.90;;;;;;;14.09;52.54;98737.48;107231;1256;61113;-37
2023/11/03 10:30:33;;;;;;;7.90;4.90;;;;;;;14.20;52.52;98732.75;107181;1256;73010;-36
2023/11/03 10:33:01;;;;;;;5.40;4.90;;;;;;;14.28;52.15;98737.06;107057;1260;70189;-36
2023/11/03 10:35:29;;;;;;;7.10;5.50;;;;;;;14.35;52.19;98737.52;106942;1256;72793;-37
2023/11/03 10:37:57;;;;;;;7.90;5.10;;;;;;;14.43;51.81;98733.72;107034;1256;60806;-36
2023/11/03 10:40:25;;;;;;;6.80;5.60;;;;;;;14.47;51.35;98729.73;107052;1256;62413;-36
2023/11/03 10:42:52;;;;;;;7.90;5.60;;;;;;;14.51;51.85;98724.01;107085;1256;72720;-36
2023/11/03 10:45:23;;;;;;;6.50;5.20;;;;;;;14.57;52.10;98722.02;106989;1256;67596;-36
2023/11/03 10:47:58;;;;;;;8.40;5.60;;;;;;;14.66;51.90;98721.09;107081;1259;71556;-36
2023/11/03 10:50:33;;;;;;;5.40;4.70;;;;;;;14.75;51.47;98712.52;107069;1256;59593;-36
2023/11/03 10:53:37;;;;;;;7.60;5.20;;;;;;;14.80;50.98;98720.51;107143;1256;60499;-37
2023/11/03 10:56:06;;;;;;;6.70;5.20;;;;;;;14.89;51.01;98716.53;107009;1256;73904;-37
2023/11/03 10:58:53;;;;;;;7.90;4.80;;;;;;;14.97;49.92;98721.69;107126;1256;68658;-37
2023/11/03 11:01:45;;;;;;;6.00;5.10;;;;;;;15.00;50.11;98720.01;107071;1256;71518;-36
2023/11/03 11:04:18;;;;;;;6.90;5.00;;;;;;;15.07;49.30;98719.95;107146;1256;60416;-36
2023/11/03 11:06:54;;;;;;;6.20;4.70;;;;;;;15.11;49.53;98726.16;107085;1262;60055;-37
2023/11/03 11:09:34;;;;;;;5.60;4.00;;;;;;;15.22;49.39;98714.50;107082;1256;76014;-36
2023/11/03 11:12:04;;;;;;;5.20;4.20;;;;;;;15.39;49.34;98703.79;107041;1263;67940;-36
2023/11/03 11:14:38;;;;;;;5.80;4.00;;;;;;;15.59;48.82;98693.13;107057;1256;72884;-37
2023/11/03 11:17:11;;;;;;;8.40;4.50;;;;;;;15.80;48.07;98682.63;106978;1259;60373;-37
2023/11/03 11:19:44;;;;;;;5.60;4.50;;;;;;;15.95;47.20;98687.11;107007;1256;60969;-37
2023/11/03 11:22:17;;;;;;;6.80;4.90;;;;;;;16.06;46.80;98692.82;107109;1256;72574;-36
2023/11/03 11:24:45;;;;;;;5.40;4.70;;;;;;;16.12;46.62;98686.65;107060;1257;68616;-37
2023/11/03 11:27:18;;;;;;;6.20;4.50;;;;;;;16.14;46.67;98678.19;107062;1259;71658;-36
2023/11/03 11:30:03;;;;;;;4.40;3.90;;;;;;;16.17;46.46;98676.19;107048;1256;62269;-37
2023/11/03 11:32:30;;;;;;;7.80;4.50;;;;;;;16.23;45.73;98669.93;107115;1257;60553;-36